createdAt,value
2019-01-02T00:00:15.059Z,82.23
2019-01-02T00:02:44.329Z,78.63
2019-01-02T00:05:13.070Z,67.60
2019-01-02T00:07:41.832Z,77.57
2019-01-02T00:10:10.579Z,78.97
2019-01-02T00:12:40.716Z,71.73
2019-01-02T00:15:12.360Z,72.13
2019-01-02T00:17:40.976Z,77.57
2019-01-02T00:20:13.337Z,73.97
2019-01-02T00:22:42.056Z,65.53
2019-01-02T00:25:12.861Z,69.87
2019-01-02T00:27:42.676Z,69.70
2019-01-02T00:30:11.373Z,69.70
2019-01-02T00:32:44.054Z,65.00
2019-01-02T00:35:13.686Z,72.57
2019-01-02T00:37:46.091Z,69.17
2019-01-02T00:40:14.797Z,65.43
2019-01-02T00:42:43.886Z,64.00
2019-01-02T00:45:12.589Z,68.57
2019-01-02T00:47:44.005Z,62.87
2019-01-02T00:50:13.628Z,71.20
2019-01-02T00:52:47.287Z,67.20
2019-01-02T00:55:16.112Z,68.57
2019-01-02T00:57:44.867Z,66.23
2019-01-02T01:00:22.793Z,62.63
2019-01-02T01:02:52.881Z,72.80
2019-01-02T01:05:23.125Z,68.87
2019-01-02T01:07:54.062Z,73.27
2019-01-02T01:10:22.786Z,72.80
2019-01-02T01:12:53.076Z,78.80
2019-01-02T01:15:23.618Z,78.27
2019-01-02T01:17:52.898Z,72.83
2019-01-02T01:20:21.566Z,66.53
2019-01-02T01:22:57.622Z,69.73
2019-01-02T01:25:22.064Z,69.03
2019-01-02T01:27:52.049Z,67.47
2019-01-02T01:30:21.752Z,67.60
2019-01-02T01:32:52.975Z,64.27
2019-01-02T01:35:21.652Z,67.70
2019-01-02T01:37:51.020Z,69.23
2019-01-02T01:40:20.385Z,73.30
2019-01-02T01:42:49.844Z,70.60
2019-01-02T01:45:19.016Z,76.30
2019-01-02T01:47:47.728Z,73.03
2019-01-02T01:50:19.158Z,74.27
2019-01-02T01:52:49.344Z,67.47
2019-01-02T01:55:18.092Z,69.27
2019-01-02T01:57:47.226Z,74.53
2019-01-02T02:00:18.779Z,74.37
2019-01-02T02:02:48.434Z,69.43
2019-01-02T02:05:17.471Z,70.63
2019-01-02T02:07:48.062Z,71.97
2019-01-02T02:10:17.978Z,70.77
2019-01-02T02:12:46.667Z,63.03
2019-01-02T02:15:15.942Z,70.90
2019-01-02T02:17:45.351Z,68.07
2019-01-02T02:20:14.486Z,65.43
2019-01-02T02:22:43.141Z,62.23
2019-01-02T02:25:14.600Z,60.40
2019-01-02T02:27:45.068Z,61.40
2019-01-02T02:30:15.405Z,66.30
2019-01-02T02:32:45.610Z,56.77
2019-01-02T02:35:15.038Z,59.63
2019-01-02T02:37:43.756Z,60.60
2019-01-02T02:40:15.682Z,53.60
2019-01-02T02:42:44.453Z,58.63
2019-01-02T02:45:13.620Z,55.63
2019-01-02T02:47:42.966Z,55.87
2019-01-02T02:50:14.143Z,53.50
2019-01-02T02:52:42.883Z,60.20
2019-01-02T02:55:14.319Z,54.20
2019-01-02T02:57:43.032Z,52.63
2019-01-02T03:00:14.296Z,56.40
2019-01-02T03:02:44.875Z,55.93
2019-01-02T03:05:15.451Z,45.40
2019-01-02T03:07:44.766Z,47.40
2019-01-02T03:10:15.434Z,44.73
2019-01-02T03:12:44.527Z,48.00
2019-01-02T03:15:16.321Z,54.23
2019-01-02T03:17:45.004Z,51.17
2019-01-02T03:20:15.314Z,53.90
2019-01-02T03:22:44.803Z,51.47
2019-01-02T03:25:14.712Z,51.83
2019-01-02T03:27:43.995Z,56.27
2019-01-02T03:30:15.812Z,48.43
2019-01-02T03:32:45.043Z,53.07
2019-01-02T03:35:14.379Z,48.40
2019-01-02T03:37:43.103Z,49.73
2019-01-02T03:40:13.986Z,46.20
2019-01-02T03:42:42.710Z,53.83
2019-01-02T03:45:14.177Z,48.93
2019-01-02T03:47:42.897Z,46.50
2019-01-02T03:50:13.934Z,44.67
2019-01-02T03:52:43.604Z,41.60
2019-01-02T03:55:12.363Z,38.53
2019-01-02T03:57:41.098Z,34.27
2019-01-02T04:00:12.591Z,34.83
2019-01-02T04:02:41.376Z,36.67
2019-01-02T04:05:15.444Z,35.87
2019-01-02T04:07:46.978Z,36.97
2019-01-02T04:10:15.660Z,40.27
2019-01-02T04:12:44.373Z,39.33
2019-01-02T04:15:14.015Z,46.60
2019-01-02T04:17:42.709Z,42.30
2019-01-02T04:20:11.455Z,40.83
2019-01-02T04:22:40.188Z,45.63
2019-01-02T04:25:09.386Z,42.27
2019-01-02T04:27:38.165Z,43.43
2019-01-02T04:30:15.383Z,40.43
2019-01-02T04:32:44.149Z,45.70
2019-01-02T04:35:16.510Z,41.63
2019-01-02T04:37:45.219Z,49.70
2019-01-02T04:40:13.903Z,50.33
2019-01-02T04:42:44.181Z,41.20
2019-01-02T04:45:12.889Z,49.20
2019-01-02T04:47:41.866Z,48.20
2019-01-02T04:50:13.010Z,42.23
2019-01-02T04:52:41.724Z,44.73
2019-01-02T04:55:11.035Z,50.93
2019-01-02T04:57:41.178Z,42.53
2019-01-02T05:00:13.403Z,41.20
2019-01-02T05:02:42.137Z,43.63
2019-01-02T05:05:10.812Z,53.07
2019-01-02T05:07:39.523Z,48.43
2019-01-02T05:10:11.752Z,48.07
2019-01-02T05:12:40.769Z,46.93
2019-01-02T05:15:12.325Z,53.87
2019-01-02T05:17:41.053Z,46.93
2019-01-02T05:20:15.957Z,45.63
2019-01-02T05:22:44.609Z,48.97
2019-01-02T05:25:13.720Z,48.33
2019-01-02T05:27:42.457Z,44.30
2019-01-02T05:30:13.824Z,52.13
2019-01-02T05:32:44.683Z,55.07
2019-01-02T05:35:13.486Z,48.43
2019-01-02T05:37:44.337Z,56.57
2019-01-02T05:40:15.526Z,54.40
2019-01-02T05:42:44.206Z,55.57
2019-01-02T05:45:15.408Z,65.50
2019-01-02T05:47:44.140Z,62.53
2019-01-02T05:50:15.222Z,62.60
2019-01-02T05:52:43.922Z,66.63
2019-01-02T05:55:12.639Z,61.47
2019-01-02T05:57:41.340Z,65.83
2019-01-02T06:00:13.326Z,68.03
2019-01-02T06:02:42.425Z,64.80
2019-01-02T06:05:11.110Z,77.40
2019-01-02T06:07:39.774Z,81.10
2019-01-02T06:10:11.282Z,75.43
2019-01-02T06:12:41.550Z,72.20
2019-01-02T06:15:13.494Z,75.03
2019-01-02T06:17:42.234Z,73.70
2019-01-02T06:20:13.600Z,83.57
2019-01-02T06:22:44.464Z,72.37
2019-01-02T06:25:13.201Z,76.47
2019-01-02T06:27:41.961Z,65.40
2019-01-02T06:30:12.447Z,72.13
2019-01-02T06:32:41.142Z,68.10
2019-01-02T06:35:09.999Z,63.90
2019-01-02T06:37:39.905Z,63.63
2019-01-02T06:40:11.739Z,55.20
2019-01-02T06:42:40.639Z,48.83
2019-01-02T06:45:12.013Z,52.73
2019-01-02T06:47:43.354Z,59.07
2019-01-02T06:50:15.409Z,55.80
2019-01-02T06:52:44.161Z,52.70
2019-01-02T06:55:14.037Z,49.97
2019-01-02T06:57:42.722Z,47.93
2019-01-02T07:00:17.358Z,57.67
2019-01-02T07:02:47.596Z,54.80
2019-01-02T07:05:16.336Z,55.13
2019-01-02T07:07:45.050Z,53.23
2019-01-02T07:10:13.673Z,49.77
2019-01-02T07:12:42.336Z,56.90
2019-01-02T07:15:11.004Z,58.67
2019-01-02T07:17:40.099Z,54.17
2019-01-02T07:20:11.192Z,54.13
2019-01-02T07:22:39.897Z,52.83
2019-01-02T07:25:09.382Z,59.47
2019-01-02T07:27:38.050Z,61.40
2019-01-02T07:30:13.162Z,50.13
2019-01-02T07:32:41.841Z,56.07
2019-01-02T07:35:48.505Z,57.27
2019-01-02T07:38:35.669Z,54.80
2019-01-02T07:41:27.115Z,54.87
2019-01-02T07:44:04.914Z,47.10
2019-01-02T07:47:05.546Z,47.33
2019-01-02T07:49:46.521Z,48.90
2019-01-02T07:52:37.826Z,50.97
2019-01-02T07:55:41.279Z,45.23
2019-01-02T07:58:40.308Z,42.07
2019-01-02T08:01:34.599Z,48.83
2019-01-02T08:04:20.514Z,47.57
2019-01-02T08:07:16.116Z,47.07
2019-01-02T08:10:02.742Z,46.27
2019-01-02T08:12:40.507Z,48.70
2019-01-02T08:15:45.723Z,48.93
2019-01-02T08:18:26.823Z,51.17
2019-01-02T08:21:22.869Z,59.73
2019-01-02T08:24:10.718Z,55.67
2019-01-02T08:26:48.063Z,52.93
2019-01-02T08:29:43.313Z,56.43
2019-01-02T08:32:24.252Z,62.27
2019-01-02T08:35:21.767Z,62.83
2019-01-02T08:38:13.133Z,66.07
2019-01-02T08:41:06.046Z,70.87
2019-01-02T08:43:49.558Z,66.43
2019-01-02T08:46:50.087Z,65.03
2019-01-02T08:49:36.449Z,64.10
2019-01-02T08:52:23.055Z,58.87
2019-01-02T08:55:13.011Z,54.07
2019-01-02T08:58:02.572Z,56.43
2019-01-02T09:00:49.455Z,49.60
2019-01-02T09:03:40.686Z,50.30
2019-01-02T09:06:33.669Z,46.67
2019-01-02T09:09:20.353Z,49.57
2019-01-02T09:12:07.171Z,41.10
2019-01-02T09:14:47.603Z,46.37
2019-01-02T09:17:48.066Z,40.83
2019-01-02T09:20:25.962Z,42.03
2019-01-02T11:22:16.653Z,43.47
2019-01-02T11:24:48.467Z,43.13
2019-01-02T11:27:48.938Z,40.97
2019-01-02T11:30:32.856Z,46.37
2019-01-02T11:33:10.446Z,38.73
2019-01-02T11:35:54.244Z,41.23
2019-01-02T11:38:28.985Z,36.97
2019-01-02T11:41:00.970Z,45.30
2019-01-02T11:44:05.754Z,50.37
2019-01-02T11:46:34.477Z,44.57
2019-01-02T11:49:03.220Z,40.90
2019-01-02T11:51:33.973Z,38.03
2019-01-02T11:54:02.618Z,34.67
2019-01-02T11:56:31.301Z,30.40
2019-01-02T11:59:00.153Z,30.97
2019-01-02T12:01:29.771Z,30.97
2019-01-02T12:03:59.153Z,28.97
2019-01-02T12:06:30.711Z,28.00
2019-01-02T12:08:59.730Z,30.97
2019-01-02T12:11:28.430Z,29.50
2019-01-02T12:13:57.137Z,27.93
2019-01-02T12:16:25.849Z,29.57
2019-01-02T12:18:55.697Z,29.57
2019-01-02T12:21:28.951Z,30.50
2019-01-02T12:23:57.374Z,34.87
2019-01-02T12:26:26.187Z,33.40
2019-01-02T12:28:56.206Z,32.57
2019-01-02T12:31:24.937Z,30.93
2019-01-02T12:33:53.660Z,31.00
2019-01-02T12:36:28.195Z,30.73
2019-01-02T12:38:56.951Z,32.03
2019-01-02T12:41:26.450Z,29.83
2019-01-02T12:43:57.180Z,29.67
2019-01-02T12:46:33.228Z,29.73
2019-01-02T12:49:01.986Z,28.77
2019-01-02T12:51:31.715Z,28.73
2019-01-02T12:54:00.427Z,31.00
2019-01-02T12:56:32.439Z,32.27
2019-01-02T12:59:02.722Z,32.47
2019-01-02T13:01:35.356Z,33.03
2019-01-02T13:04:17.937Z,29.93
2019-01-02T13:07:13.907Z,35.23
2019-01-02T13:09:48.318Z,31.83
2019-01-02T13:12:38.115Z,37.30
2019-01-02T13:15:27.846Z,31.73
2019-01-02T13:18:11.637Z,33.70
2019-01-02T13:20:52.283Z,34.07
2019-01-02T13:23:26.922Z,30.47
2019-01-02T13:26:16.541Z,34.33
2019-01-02T13:28:59.102Z,60.07
2019-01-02T13:31:50.118Z,37.10
2019-01-02T13:34:21.920Z,37.37
2019-01-02T13:36:59.685Z,33.20
2019-01-02T13:39:31.890Z,32.83
2019-01-02T13:42:03.699Z,37.37
2019-01-02T13:44:41.395Z,37.60
2019-01-02T13:47:34.336Z,31.03
2019-01-02T13:50:12.080Z,31.07
2019-01-02T13:52:43.689Z,36.03
2019-01-02T13:55:16.597Z,36.90
2019-01-02T13:57:45.440Z,32.53
2019-01-02T14:00:14.146Z,36.50
2019-01-02T14:02:43.256Z,34.10
2019-01-02T14:05:15.576Z,46.00
2019-01-02T14:07:44.329Z,31.33
2019-01-02T14:10:13.039Z,32.07
2019-01-02T14:12:42.206Z,29.10
2019-01-02T14:15:10.902Z,30.33
2019-01-02T14:17:41.156Z,31.37
2019-01-02T14:20:09.974Z,35.73
2019-01-02T14:22:38.641Z,39.43
2019-01-02T14:25:07.951Z,36.70
2019-01-02T14:27:36.706Z,34.83
2019-01-02T14:30:08.316Z,40.20
2019-01-02T14:32:37.561Z,37.23
2019-01-02T14:35:07.715Z,41.40
2019-01-02T14:37:36.486Z,30.60
2019-01-02T14:40:06.715Z,28.37
2019-01-02T14:42:39.478Z,31.70
2019-01-02T14:45:08.184Z,30.80
2019-01-02T14:47:36.922Z,32.33
2019-01-02T14:50:08.576Z,29.33
2019-01-02T14:52:43.131Z,32.50
2019-01-02T14:55:07.580Z,37.13
2019-01-02T14:57:36.381Z,38.40
2019-01-02T15:00:08.370Z,30.07
2019-01-02T15:02:37.021Z,33.03
2019-01-02T15:05:06.409Z,30.00
2019-01-02T15:07:35.172Z,29.90
2019-01-02T15:10:04.770Z,35.57
2019-01-02T15:12:34.156Z,29.70
2019-01-02T15:15:02.879Z,29.90
2019-01-02T15:17:31.587Z,30.90
2019-01-02T15:20:00.248Z,39.63
2019-01-02T15:22:31.424Z,28.73
2019-01-02T15:25:00.183Z,32.13
2019-01-02T15:27:28.914Z,35.53
2019-01-02T15:29:57.791Z,30.67
2019-01-02T15:32:26.421Z,30.60
2019-01-02T15:34:55.137Z,30.93
2019-01-02T15:37:23.826Z,32.00
2019-01-02T15:39:52.591Z,31.47
2019-01-02T15:42:21.304Z,29.93
2019-01-02T15:44:51.641Z,33.63
2019-01-02T15:47:22.618Z,34.27
2019-01-02T15:49:51.539Z,35.40
2019-01-02T15:52:23.135Z,40.43
2019-01-02T15:54:53.458Z,32.87
2019-01-02T15:57:22.274Z,31.23
2019-01-02T15:59:50.948Z,31.33
2019-01-02T16:02:19.612Z,38.30
2019-01-02T16:04:52.354Z,35.77
2019-01-02T16:07:21.569Z,32.53
2019-01-02T16:09:50.269Z,40.70
2019-01-02T16:12:20.584Z,32.80
2019-01-02T16:14:49.287Z,35.87
2019-01-02T16:17:20.286Z,35.70
2019-01-02T16:19:48.960Z,37.53
2019-01-02T16:22:17.690Z,39.87
2019-01-02T16:24:46.369Z,36.37
2019-01-02T16:27:15.050Z,33.47
2019-01-02T16:29:43.765Z,35.83
2019-01-02T16:32:12.441Z,35.13
2019-01-02T16:34:41.161Z,34.97
2019-01-02T16:37:10.221Z,31.97
2019-01-02T16:39:39.516Z,34.27
2019-01-02T16:42:10.051Z,32.83
2019-01-02T16:44:39.353Z,39.83
2019-01-02T16:47:08.098Z,33.03
2019-01-02T16:49:38.423Z,35.93
2019-01-02T16:52:07.115Z,35.90
2019-01-02T16:54:37.515Z,39.60
2019-01-02T16:57:06.382Z,35.37
2019-01-02T16:59:35.558Z,34.03
2019-01-02T17:02:04.317Z,34.20
2019-01-02T17:04:33.547Z,30.90
2019-01-02T17:07:02.224Z,32.50
2019-01-02T17:09:32.698Z,32.57
2019-01-02T17:12:02.550Z,42.57
2019-01-02T17:14:31.278Z,39.23
2019-01-02T17:17:01.088Z,31.43
2019-01-02T17:19:29.766Z,30.27
2019-01-02T17:22:00.059Z,32.47
2019-01-02T17:24:30.308Z,30.30
2019-01-02T17:27:00.086Z,32.07
2019-01-02T17:29:29.369Z,28.17
2019-01-02T17:31:59.557Z,36.00
2019-01-02T17:34:28.295Z,34.53
2019-01-02T17:36:58.131Z,40.90
2019-01-02T17:39:26.812Z,28.37
2019-01-02T17:41:55.556Z,28.13
2019-01-02T17:44:26.494Z,32.47
2019-01-02T17:46:55.201Z,28.00
2019-01-02T17:49:23.925Z,21.87
2019-01-02T17:51:52.672Z,25.80
2019-01-02T17:54:21.395Z,29.57
2019-01-02T17:56:51.073Z,30.73
2019-01-02T17:59:19.954Z,140.90
2019-01-02T18:01:48.650Z,59.40
2019-01-02T18:04:17.513Z,27.17
2019-01-02T18:06:47.739Z,24.70
2019-01-02T18:09:16.998Z,23.50
2019-01-02T18:11:45.728Z,28.20
2019-01-02T18:14:14.461Z,30.23
2019-01-02T18:16:45.142Z,30.13
2019-01-02T18:19:13.727Z,24.20
2019-01-02T18:21:42.488Z,33.77
2019-01-02T18:27:14.200Z,30.47
2019-01-02T18:29:42.840Z,26.03
2019-01-02T18:32:15.866Z,28.80
2019-01-02T18:34:44.591Z,31.67
2019-01-02T18:37:13.896Z,35.83
2019-01-02T18:39:42.597Z,33.87
2019-01-02T18:42:12.029Z,34.40
2019-01-02T18:44:40.755Z,35.63
2019-01-02T18:47:10.012Z,31.70
2019-01-02T18:49:41.887Z,29.70
2019-01-02T18:52:11.304Z,27.50
2019-01-02T18:54:42.368Z,27.13
2019-01-02T18:57:14.311Z,30.77
2019-01-02T18:59:44.703Z,33.80
2019-01-02T19:02:14.011Z,28.73
2019-01-02T19:04:43.731Z,25.13
2019-01-02T19:07:14.777Z,30.67
2019-01-02T23:12:15.536Z,61.50
2019-01-02T23:15:02.278Z,56.60
2019-01-02T23:17:41.317Z,63.50
2019-01-02T23:20:28.477Z,56.53
2019-01-02T23:23:04.617Z,57.57
2019-01-02T23:25:51.408Z,54.73
2019-01-02T23:28:30.740Z,56.40
2019-01-02T23:31:17.468Z,53.43
2019-01-02T23:34:05.805Z,56.43
2019-01-02T23:36:38.809Z,61.47
2019-01-02T23:39:20.897Z,60.33
2019-01-02T23:41:51.728Z,68.77
2019-01-02T23:44:30.837Z,66.73
2019-01-02T23:47:01.053Z,74.60
2019-01-02T23:49:43.242Z,63.53
2019-01-02T23:52:30.419Z,65.87
2019-01-02T23:55:18.081Z,60.23
2019-01-02T23:58:15.952Z,63.57
